createdAt,value
2023-02-03T00:00:12.165Z,4.13
2023-02-03T00:03:16.728Z,4.53
2023-02-03T00:06:21.622Z,5.13
2023-02-03T00:09:26.382Z,4.38
2023-02-03T00:12:31.232Z,4.63
2023-02-03T00:15:36.025Z,4.47
2023-02-03T00:18:41.161Z,5.20
2023-02-03T00:21:46.286Z,3.90
2023-02-03T00:24:50.657Z,3.58
2023-02-03T00:27:55.431Z,3.15
2023-02-03T00:31:00.200Z,3.20
2023-02-03T00:34:05.065Z,3.78
2023-02-03T00:37:13.452Z,3.22
2023-02-03T00:40:19.056Z,4.10
2023-02-03T00:43:23.754Z,3.13
2023-02-03T00:46:28.292Z,3.83
2023-02-03T00:49:32.545Z,3.58
2023-02-03T00:52:37.174Z,3.25
2023-02-03T00:55:43.883Z,3.33
2023-02-03T00:58:48.563Z,3.28
2023-02-03T01:01:53.388Z,5.40
2023-02-03T01:04:58.186Z,4.90
2023-02-03T01:08:04.336Z,4.20
2023-02-03T01:11:14.520Z,3.55
2023-02-03T01:14:19.085Z,3.70
2023-02-03T01:17:24.395Z,4.60
2023-02-03T01:20:29.601Z,4.00
2023-02-03T01:23:37.509Z,4.88
2023-02-03T01:26:42.991Z,4.53
2023-02-03T01:29:47.476Z,4.68
2023-02-03T01:32:51.873Z,4.25
2023-02-03T01:35:56.579Z,3.60
2023-02-03T01:39:01.533Z,4.55
2023-02-03T01:42:08.947Z,4.53
2023-02-03T01:45:14.457Z,4.88
2023-02-03T01:48:19.189Z,4.22
2023-02-03T01:51:24.579Z,3.70
2023-02-03T01:54:38.862Z,3.47
2023-02-03T01:58:13.567Z,3.67
2023-02-03T02:01:19.726Z,3.50
2023-02-03T02:04:34.928Z,3.20
2023-02-03T02:07:41.212Z,3.78
2023-02-03T02:10:47.400Z,3.63
2023-02-03T02:13:57.323Z,3.35
2023-02-03T02:17:42.265Z,3.45
2023-02-03T02:21:12.480Z,4.10
2023-02-03T02:24:50.786Z,3.28
2023-02-03T02:28:29.324Z,3.35
2023-02-03T02:32:14.447Z,3.22
2023-02-03T02:35:27.416Z,2.70
2023-02-03T02:39:07.490Z,2.55
2023-02-03T02:42:33.917Z,2.50
2023-02-03T02:45:48.191Z,3.40
2023-02-03T02:49:34.225Z,3.25
2023-02-03T02:52:42.828Z,3.17
2023-02-03T02:55:48.535Z,3.10
2023-02-03T02:58:56.031Z,2.47
2023-02-03T03:02:00.730Z,2.53
2023-02-03T03:05:09.522Z,3.38
2023-02-03T03:08:26.417Z,2.90
2023-02-03T03:11:35.450Z,2.70
2023-02-03T03:14:45.488Z,3.45
2023-02-03T03:18:00.568Z,3.20
2023-02-03T03:21:07.018Z,2.22
2023-02-03T03:24:18.833Z,2.88
2023-02-03T03:27:28.710Z,3.80
2023-02-03T03:30:36.383Z,2.50
2023-02-03T03:33:41.321Z,2.50
2023-02-03T03:37:01.156Z,2.75
2023-02-03T03:40:27.209Z,2.60
2023-02-03T03:43:42.334Z,3.53
2023-02-03T03:46:54.951Z,2.75
2023-02-03T03:50:02.562Z,3.88
2023-02-03T03:53:10.005Z,2.95
2023-02-03T03:56:22.590Z,3.20
2023-02-03T03:59:32.350Z,3.00
2023-02-03T04:02:41.290Z,2.90
2023-02-03T04:05:52.909Z,3.40
2023-02-03T04:08:59.411Z,2.83
2023-02-03T04:12:06.401Z,3.67
2023-02-03T04:15:10.858Z,3.10
2023-02-03T04:18:16.779Z,3.80
2023-02-03T04:21:22.036Z,3.47
2023-02-03T04:24:26.444Z,2.78
2023-02-03T04:27:30.871Z,3.00
2023-02-03T04:30:35.647Z,2.78
2023-02-03T04:33:40.493Z,3.38
2023-02-03T04:36:45.432Z,2.92
2023-02-03T04:39:52.191Z,3.25
2023-02-03T04:42:56.760Z,3.10
2023-02-03T04:46:01.672Z,3.00
2023-02-03T04:49:06.903Z,3.80
2023-02-03T04:52:12.261Z,2.53
2023-02-03T04:55:16.864Z,2.35
2023-02-03T04:58:21.764Z,2.80
2023-02-03T05:01:26.837Z,2.80
2023-02-03T05:04:32.448Z,3.08
2023-02-03T05:07:36.706Z,2.80
2023-02-03T05:10:41.594Z,2.58
2023-02-03T05:13:46.647Z,3.33
2023-02-03T05:16:51.584Z,2.50
2023-02-03T05:19:56.181Z,2.20
2023-02-03T05:23:01.318Z,2.38
2023-02-03T05:26:05.640Z,2.88
2023-02-03T05:29:11.759Z,2.65
2023-02-03T05:32:16.067Z,2.70
2023-02-03T05:35:20.845Z,3.65
2023-02-03T05:38:25.244Z,2.30
2023-02-03T05:41:47.959Z,2.72
2023-02-03T05:44:52.875Z,3.03
2023-02-03T05:47:57.490Z,2.45
2023-02-03T05:51:02.644Z,1.77
2023-02-03T05:54:08.067Z,2.33
2023-02-03T05:57:13.516Z,2.95
2023-02-03T06:00:18.920Z,3.10
2023-02-03T06:03:23.603Z,2.30
2023-02-03T06:06:33.181Z,2.30
2023-02-03T06:09:37.668Z,2.53
2023-02-03T06:12:42.894Z,2.60
2023-02-03T06:15:47.481Z,3.40
2023-02-03T06:18:54.047Z,2.88
2023-02-03T06:21:58.720Z,2.80
2023-02-03T06:25:03.982Z,2.35
2023-02-03T06:28:09.153Z,3.33
2023-02-03T06:31:13.950Z,3.70
2023-02-03T06:34:18.539Z,2.47
2023-02-03T06:37:24.814Z,3.03
2023-02-03T06:40:30.019Z,2.63
2023-02-03T06:43:35.627Z,3.47
2023-02-03T06:46:40.524Z,2.92
2023-02-03T06:49:45.371Z,3.55
2023-02-03T06:52:50.782Z,3.33
2023-02-03T06:55:55.160Z,3.08
2023-02-03T06:58:59.499Z,2.40
2023-02-03T07:02:04.956Z,2.58
2023-02-03T07:05:09.936Z,2.80
2023-02-03T07:08:14.515Z,2.75
2023-02-03T07:11:18.856Z,2.92
2023-02-03T07:14:23.483Z,2.72
2023-02-03T07:17:28.311Z,2.47
2023-02-03T07:20:33.055Z,2.75
2023-02-03T07:23:37.738Z,2.85
2023-02-03T07:26:43.204Z,2.60
2023-02-03T07:29:47.521Z,3.58
2023-02-03T07:32:53.755Z,3.38
2023-02-03T07:35:59.997Z,2.90
2023-02-03T07:39:04.818Z,3.38
2023-02-03T07:42:09.727Z,3.65
2023-02-03T07:45:19.596Z,2.30
2023-02-03T07:48:24.259Z,2.40
2023-02-03T07:51:28.972Z,2.67
2023-02-03T07:54:33.261Z,2.67
2023-02-03T07:57:37.974Z,2.80
2023-02-03T08:00:42.775Z,2.53
2023-02-03T08:03:47.946Z,2.63
2023-02-03T08:06:52.941Z,3.25
2023-02-03T08:09:57.865Z,2.92
2023-02-03T08:13:02.803Z,2.75
2023-02-03T08:16:07.779Z,2.65
2023-02-03T08:19:12.712Z,2.70
2023-02-03T08:22:17.953Z,2.53
2023-02-03T08:25:22.854Z,2.47
2023-02-03T08:28:27.428Z,2.60
2023-02-03T08:31:32.321Z,2.28
2023-02-03T08:34:37.859Z,2.10
2023-02-03T08:37:43.039Z,2.85
2023-02-03T08:40:47.627Z,2.75
2023-02-03T08:43:54.134Z,2.15
2023-02-03T08:46:59.512Z,2.67
2023-02-03T08:50:07.790Z,2.85
2023-02-03T08:53:12.838Z,2.40
2023-02-03T08:56:17.744Z,3.75
2023-02-03T08:59:23.125Z,3.30
2023-02-03T09:02:27.827Z,2.40
2023-02-03T09:05:34.278Z,2.42
2023-02-03T09:08:39.310Z,2.70
2023-02-03T09:11:44.323Z,2.90
2023-02-03T09:14:49.051Z,2.22
2023-02-03T09:17:55.352Z,2.70
2023-02-03T09:21:13.957Z,2.92
2023-02-03T09:24:25.863Z,2.08
2023-02-03T09:27:30.445Z,3.30
2023-02-03T09:30:35.008Z,2.90
2023-02-03T09:33:40.475Z,3.17
2023-02-03T09:36:45.378Z,2.95
2023-02-03T09:39:50.399Z,2.47
2023-02-03T09:43:32.340Z,2.80
2023-02-03T09:46:48.754Z,2.70
2023-02-03T09:50:04.010Z,2.90
2023-02-03T09:53:36.876Z,2.28
2023-02-03T09:56:50.241Z,2.75
2023-02-03T10:00:00.211Z,2.60
2023-02-03T10:03:54.281Z,2.58
2023-02-03T10:07:25.290Z,2.93
2023-02-03T10:10:49.214Z,2.85
2023-02-03T10:14:23.817Z,3.22
2023-02-03T10:17:50.963Z,2.65
2023-02-03T10:21:06.190Z,2.70
2023-02-03T10:24:25.062Z,2.90
2023-02-03T10:27:32.047Z,2.75
2023-02-03T10:31:21.566Z,2.75
2023-02-03T10:34:26.647Z,2.45
2023-02-03T10:37:38.260Z,2.53
2023-02-03T10:40:43.330Z,2.85
2023-02-03T10:43:51.947Z,3.35
2023-02-03T10:46:57.759Z,2.20
2023-02-03T10:50:23.235Z,2.55
2023-02-03T10:53:36.234Z,2.65
2023-02-03T10:56:41.481Z,2.60
2023-02-03T10:59:48.494Z,1.98
2023-02-03T11:03:06.838Z,2.33
2023-02-03T11:06:17.365Z,2.85
2023-02-03T11:09:40.352Z,2.10
2023-02-03T11:12:44.862Z,2.97
2023-02-03T11:16:03.911Z,2.75
2023-02-03T11:19:21.611Z,2.25
2023-02-03T11:22:37.297Z,2.53
2023-02-03T11:25:41.962Z,2.45
2023-02-03T11:28:51.368Z,2.42
2023-02-03T11:31:59.639Z,2.20
2023-02-03T11:35:24.401Z,3.30
2023-02-03T11:38:38.698Z,2.63
2023-02-03T11:41:43.724Z,2.90
2023-02-03T11:44:48.472Z,2.97
2023-02-03T11:48:00.309Z,3.30
2023-02-03T11:51:31.227Z,2.67
2023-02-03T11:54:48.639Z,2.47
2023-02-03T11:58:05.885Z,2.95
2023-02-03T12:01:37.762Z,2.17
2023-02-03T12:04:54.489Z,2.10
2023-02-03T12:08:35.143Z,2.22
2023-02-03T12:12:13.168Z,2.40
2023-02-03T12:15:43.137Z,2.05
2023-02-03T12:19:05.650Z,2.83
2023-02-03T12:22:25.958Z,2.72
2023-02-03T12:25:58.011Z,3.08
2023-02-03T12:29:21.987Z,2.63
2023-02-03T12:32:49.735Z,2.38
2023-02-03T12:36:10.141Z,2.30
2023-02-03T12:40:00.968Z,2.50
2023-02-03T12:43:42.621Z,2.22
2023-02-03T12:47:01.131Z,2.03
2023-02-03T12:50:21.740Z,3.83
2023-02-03T12:53:36.533Z,2.92
2023-02-03T12:56:44.596Z,3.85
2023-02-03T13:00:29.600Z,2.60
2023-02-03T13:03:55.833Z,2.72
2023-02-03T13:07:42.029Z,2.50
2023-02-03T13:11:02.515Z,2.63
2023-02-03T13:14:31.858Z,2.25
2023-02-03T13:18:16.225Z,2.58
2023-02-03T13:21:21.015Z,2.70
2023-02-03T13:24:28.344Z,2.30
2023-02-03T13:27:46.690Z,2.90
2023-02-03T13:31:19.537Z,4.10
2023-02-03T13:34:55.216Z,3.45
2023-02-03T13:38:12.209Z,2.70
2023-02-03T13:41:50.063Z,3.10
2023-02-03T13:45:05.184Z,2.92
2023-02-03T13:48:22.134Z,2.67
2023-02-03T13:51:35.907Z,2.83
2023-02-03T13:54:44.496Z,3.17
2023-02-03T13:57:52.090Z,3.40
2023-02-03T14:00:56.605Z,2.72
2023-02-03T14:04:02.879Z,3.50
2023-02-03T14:07:33.720Z,3.38
2023-02-03T14:10:38.265Z,3.42
2023-02-03T14:13:44.420Z,2.85
2023-02-03T14:16:54.586Z,3.00
2023-02-03T14:19:59.679Z,2.95
2023-02-03T14:23:07.340Z,3.65
2023-02-03T14:26:24.403Z,3.75
2023-02-03T14:29:32.243Z,3.25
2023-02-03T14:33:02.821Z,2.97
2023-02-03T14:36:43.528Z,4.03
2023-02-03T14:40:11.368Z,4.10
2023-02-03T14:43:31.531Z,3.25
2023-02-03T14:47:14.700Z,3.63
2023-02-03T14:50:40.051Z,3.47
2023-02-03T14:53:56.666Z,2.58
2023-02-03T14:57:17.464Z,3.85
2023-02-03T15:00:23.694Z,3.05
2023-02-03T15:03:30.822Z,2.63
2023-02-03T15:07:01.450Z,4.68
2023-02-03T15:10:20.257Z,3.33
2023-02-03T15:13:30.868Z,3.55
2023-02-03T15:16:35.680Z,3.47
2023-02-03T15:19:42.817Z,4.18
2023-02-03T15:22:47.787Z,4.25
2023-02-03T15:26:03.083Z,5.47
2023-02-03T15:29:28.822Z,3.95
2023-02-03T15:32:39.853Z,3.53
2023-02-03T15:35:48.567Z,3.55
2023-02-03T15:39:27.678Z,5.30
2023-02-03T15:43:04.010Z,3.75
2023-02-03T15:46:24.218Z,4.07
2023-02-03T15:49:35.884Z,4.45
2023-02-03T15:52:42.894Z,3.60
2023-02-03T15:55:52.227Z,4.03
2023-02-03T15:58:58.931Z,4.85
2023-02-03T16:02:49.002Z,4.07
2023-02-03T16:05:54.368Z,3.97
2023-02-03T16:08:59.883Z,3.05
2023-02-03T16:12:33.587Z,3.47
2023-02-03T16:15:38.526Z,2.95
2023-02-03T16:19:00.020Z,2.72
2023-02-03T16:22:05.002Z,3.17
2023-02-03T16:25:25.688Z,4.70
2023-02-03T16:28:49.730Z,4.32
2023-02-03T16:32:13.630Z,2.90
2023-02-03T16:35:37.421Z,3.05
2023-02-03T16:39:08.692Z,3.33
2023-02-03T16:42:40.976Z,2.72
2023-02-03T16:46:04.295Z,3.60
2023-02-03T16:49:27.204Z,3.65
2023-02-03T16:52:31.945Z,3.75
2023-02-03T16:55:36.632Z,3.20
2023-02-03T16:58:41.301Z,4.88
2023-02-03T17:01:45.693Z,3.78
2023-02-03T17:04:50.130Z,5.15
2023-02-03T17:07:54.487Z,5.63
2023-02-03T17:11:15.990Z,4.22
2023-02-03T17:14:20.478Z,4.97
2023-02-03T17:17:25.965Z,3.92
2023-02-03T17:20:30.576Z,3.72
2023-02-03T17:23:35.369Z,3.60
2023-02-03T17:26:40.273Z,4.50
2023-02-03T17:29:45.389Z,5.35
2023-02-03T17:32:49.816Z,9.90
2023-02-03T17:36:09.270Z,9.35
2023-02-03T17:56:26.081Z,5.20
2023-02-03T17:59:30.934Z,4.43
2023-02-03T18:02:35.655Z,4.05
2023-02-03T18:05:49.240Z,3.05
2023-02-03T18:08:55.098Z,3.25
2023-02-03T18:11:59.795Z,5.15
2023-02-03T18:15:05.104Z,4.65
2023-02-03T18:18:13.437Z,5.07
2023-02-03T18:21:19.935Z,5.28
2023-02-03T18:24:27.946Z,19.33
2023-02-03T18:27:32.662Z,23.05
2023-02-03T18:30:37.572Z,29.60
2023-02-03T18:33:46.546Z,25.40
2023-02-03T18:36:51.193Z,17.33
2023-02-03T18:39:55.837Z,14.07
2023-02-03T18:43:02.365Z,11.45
2023-02-03T18:46:13.688Z,12.40
2023-02-03T18:49:19.092Z,9.18
2023-02-03T18:52:24.363Z,8.23
2023-02-03T18:55:28.946Z,12.13
2023-02-03T18:58:33.731Z,11.05
2023-02-03T19:01:41.485Z,8.98
2023-02-03T19:04:46.066Z,6.43
2023-02-03T19:07:51.053Z,7.07
2023-02-03T19:10:55.983Z,7.22
2023-02-03T19:14:00.530Z,6.20
2023-02-03T19:17:05.526Z,7.07
2023-02-03T19:20:11.166Z,5.28
2023-02-03T19:23:15.612Z,8.63
2023-02-03T19:26:20.630Z,8.30
2023-02-03T19:29:25.578Z,12.60
2023-02-03T19:32:31.877Z,7.20
2023-02-03T19:35:36.833Z,12.80
2023-02-03T19:38:41.830Z,8.95
2023-02-03T19:41:47.525Z,18.48
2023-02-03T19:44:52.330Z,27.58
2023-02-03T19:47:57.071Z,29.77
2023-02-03T19:51:02.506Z,35.15
2023-02-03T19:54:07.666Z,27.17
2023-02-03T19:57:12.692Z,18.55
2023-02-03T20:00:18.142Z,15.52
2023-02-03T20:03:24.413Z,24.65
2023-02-03T20:06:31.658Z,15.40
2023-02-03T20:09:36.380Z,21.83
2023-02-03T20:12:41.047Z,17.38
2023-02-03T20:15:47.645Z,15.95
2023-02-03T20:18:52.674Z,14.60
2023-02-03T20:21:57.785Z,17.58
2023-02-03T20:25:02.689Z,16.90
2023-02-03T20:28:07.673Z,16.70
2023-02-03T20:31:13.808Z,14.50
2023-02-03T20:34:18.097Z,9.32
2023-02-03T20:37:23.128Z,7.55
2023-02-03T20:40:29.669Z,5.95
2023-02-03T20:43:35.080Z,4.50
2023-02-03T20:46:40.748Z,4.75
2023-02-03T20:49:46.267Z,4.22
2023-02-03T20:52:52.936Z,3.85
2023-02-03T20:56:01.575Z,3.20
2023-02-03T20:59:12.469Z,3.55
2023-02-03T21:02:51.246Z,2.80
2023-02-03T21:05:56.298Z,3.33
2023-02-03T21:09:08.958Z,3.28
2023-02-03T21:12:14.235Z,5.15
2023-02-03T21:15:29.927Z,4.15
2023-02-03T21:18:50.479Z,3.15
2023-02-03T21:21:56.186Z,3.08
2023-02-03T21:25:03.356Z,3.05
2023-02-03T21:28:26.076Z,3.83
2023-02-03T21:31:34.241Z,3.38
2023-02-03T21:34:43.667Z,3.05
2023-02-03T21:37:48.480Z,4.80
2023-02-03T21:40:53.363Z,3.53
2023-02-03T21:43:59.534Z,3.03
2023-02-03T21:47:18.517Z,3.50
2023-02-03T21:50:40.771Z,4.13
2023-02-03T21:53:56.910Z,2.92
2023-02-03T21:57:01.844Z,2.88
2023-02-03T22:00:47.887Z,3.33
2023-02-03T22:03:55.489Z,3.25
2023-02-03T22:07:00.207Z,2.83
2023-02-03T22:10:05.343Z,3.53
2023-02-03T22:13:09.988Z,3.45
2023-02-03T22:16:17.226Z,3.63
2023-02-03T22:19:22.001Z,2.80
2023-02-03T22:22:26.768Z,3.67
2023-02-03T22:25:31.738Z,2.97
2023-02-03T22:28:36.847Z,3.17
2023-02-03T22:31:42.800Z,2.80
2023-02-03T22:34:48.055Z,2.83
2023-02-03T22:37:53.959Z,3.78
2023-02-03T22:40:59.412Z,3.05
2023-02-03T22:44:03.876Z,3.83
2023-02-03T22:47:08.916Z,3.03
2023-02-03T22:50:16.367Z,3.58
2023-02-03T22:53:21.982Z,3.72
2023-02-03T22:56:26.843Z,3.88
2023-02-03T22:59:31.446Z,2.20
2023-02-03T23:02:36.052Z,3.40
2023-02-03T23:05:40.268Z,3.30
2023-02-03T23:08:44.813Z,4.22
2023-02-03T23:11:49.484Z,2.40
2023-02-03T23:14:54.628Z,3.03
2023-02-03T23:17:59.585Z,3.17
2023-02-03T23:21:04.282Z,2.92
2023-02-03T23:24:09.023Z,3.63
2023-02-03T23:27:13.748Z,3.55
2023-02-03T23:30:18.975Z,2.47
2023-02-03T23:33:23.933Z,2.72
2023-02-03T23:36:28.640Z,2.97
2023-02-03T23:39:33.366Z,2.60
2023-02-03T23:42:38.058Z,3.08
2023-02-03T23:45:42.970Z,3.33
2023-02-03T23:48:47.766Z,3.65
2023-02-03T23:51:52.547Z,3.15
2023-02-03T23:54:57.308Z,2.67
2023-02-03T23:58:01.952Z,2.35
